^^

..:: Storico WU ::..




Lo storico viene creato da WUnderground con i dati che la stazione Meteomincio invia al loro server. L' aggiornamento viene fatto ogni 5 minuti circa, tuttavia possono esserci intervalli pi¨ ampi a causa di errori, interruzioni di servizio o problemi nell' invio tramite FTP.


Storico stazione MeteoMincio
Giorno Sommario per Dicembre 30, 2022 Unità:  Inglese    Metrico   Entrambi
Giorno Settimana Mese Anno
  Max: Min: Media:
Temperatura: 49.1 °F 45.9 °F 47.1 °F
Dew Point: 48 °F 45 °F 46.2 °F
Umidità: 97% 95% 96%
Velocità vento: 4.8mph 0mph 1.6mph
Raffica: 8.1mph - -
Direzione- - South
Pressione: 30.3 in 30.1 in -
Precipitazioni: 0.1 in    
 
 
Tabulato Dati per Dicembre 30, 2022
Ora Temperatura Dew Point Pressione Direzione Velocità vento Raffica Umidità Intensità pioggia (oraria) Info solare Situazione
00:04 46 °F 45.3 °F 30.2 in ENE 3.4 mph 5 mph 97% 0 in 0 W/m2
00:09 46 °F 45.3 °F 30.2 in ENE 3.7 mph 7 mph 97% 0 in 0 W/m2
00:14 46 °F 45.3 °F 30.2 in ENE 3.4 mph 7 mph 97% 0 in 0 W/m2
00:19 46 °F 45.1 °F 30.2 in ENE 3 mph 6 mph 97% 0 in 0 W/m2
00:24 46 °F 45.1 °F 30.2 in ENE 2.5 mph 5 mph 97% 0 in 0 W/m2
00:29 46 °F 45.1 °F 30.2 in ENE 2.2 mph 4 mph 97% 0 in 0 W/m2
00:34 46 °F 45.1 °F 30.2 in ENE 2.7 mph 5 mph 97% 0 in 0 W/m2
00:39 46 °F 45.1 °F 30.2 in ENE 3.2 mph 6 mph 97% 0 in 0 W/m2
00:44 46 °F 45.3 °F 30.2 in ENE 3.5 mph 6 mph 97% 0 in 0 W/m2
00:49 46 °F 45.3 °F 30.1 in NE 3.3 mph 5 mph 97% 0 in 0 W/m2
00:54 46 °F 45.3 °F 30.1 in NE 3.1 mph 5 mph 97% 0 in 0 W/m2
00:59 46 °F 45.3 °F 30.1 in NE 3.1 mph 5 mph 97% 0 in 0 W/m2
01:04 46 °F 45.3 °F 30.1 in NE 2.7 mph 5 mph 97% 0 in 0 W/m2
01:09 46 °F 45.3 °F 30.2 in ENE 1.6 mph 4 mph 97% 0 in 0 W/m2
01:14 46 °F 45.3 °F 30.2 in NE 2.3 mph 4 mph 97% 0 in 0 W/m2
01:19 46 °F 45.3 °F 30.2 in NNE 1.5 mph 3.5 mph 97% 0 in 0 W/m2
01:24 46 °F 45.3 °F 30.2 in NNE 1.2 mph 3 mph 97% 0 in 0 W/m2
01:29 46 °F 45.3 °F 30.2 in NNE 1.6 mph 3.5 mph 97% 0 in 0 W/m2
01:34 46 °F 45.3 °F 30.2 in NNE 2 mph 3.5 mph 97% 0 in 0 W/m2
01:39 46.2 °F 45.3 °F 30.2 in NE 1.6 mph 3.5 mph 97% 0 in 0 W/m2
01:44 46.2 °F 45.3 °F 30.2 in NE 1.9 mph 3.5 mph 97% 0 in 0 W/m2
01:49 46.2 °F 45.3 °F 30.2 in ENE 1.5 mph 3 mph 97% 0 in 0 W/m2
01:54 46.2 °F 45.3 °F 30.2 in ENE 1.6 mph 3.5 mph 97% 0 in 0 W/m2
01:59 46.2 °F 45.3 °F 30.1 in ENE 2.4 mph 4 mph 97% 0 in 0 W/m2
02:04 46 °F 45.3 °F 30.1 in ENE 2.5 mph 4 mph 97% 0 in 0 W/m2
02:09 46 °F 45.3 °F 30.1 in East 2.1 mph 3.5 mph 97% 0 in 0 W/m2
02:14 46 °F 45.3 °F 30.1 in NE 2.1 mph 3.5 mph 97% 0 in 0 W/m2
02:19 46 °F 45.3 °F 30.1 in ENE 2.3 mph 3.5 mph 97% 0 in 0 W/m2
02:24 46 °F 45.3 °F 30.1 in NE 2 mph 3.5 mph 97% 0 in 0 W/m2
02:29 46 °F 45.1 °F 30.1 in NE 1.7 mph 3.5 mph 97% 0 in 0 W/m2
02:34 46 °F 45.1 °F 30.1 in NE 2.7 mph 4 mph 97% 0 in 0 W/m2
02:39 46 °F 45.1 °F 30.1 in ENE 2.8 mph 5 mph 97% 0 in 0 W/m2
02:44 46 °F 45.1 °F 30.1 in ENE 3.2 mph 5 mph 97% 0 in 0 W/m2
02:49 46 °F 45.1 °F 30.1 in ENE 2.3 mph 4 mph 97% 0 in 0 W/m2
02:54 46 °F 45.1 °F 30.1 in ENE 1.2 mph 4 mph 97% 0 in 0 W/m2
02:59 46 °F 45.1 °F 30.1 in ENE 1.9 mph 3.5 mph 97% 0 in 0 W/m2
03:04 46 °F 45.1 °F 30.1 in NE 1.8 mph 3.5 mph 97% 0 in 0 W/m2
03:09 46 °F 45.1 °F 30.1 in NE 1.6 mph 3.5 mph 97% 0 in 0 W/m2
03:14 46 °F 45.1 °F 30.1 in NE 1.6 mph 3.5 mph 97% 0 in 0 W/m2
03:19 46 °F 45.1 °F 30.1 in NE 1.6 mph 3.5 mph 97% 0 in 0 W/m2
03:24 46 °F 45.1 °F 30.1 in NE 2.1 mph 3.5 mph 97% 0 in 0 W/m2
03:29 46 °F 45.1 °F 30.1 in NNE 2.5 mph 5 mph 97% 0 in 0 W/m2
03:34 46 °F 45.1 °F 30.1 in NE 2.2 mph 5 mph 97% 0 in 0 W/m2
03:39 46 °F 45.1 °F 30.1 in NNE 1.5 mph 3.5 mph 97% 0 in 0 W/m2
03:44 46 °F 45.1 °F 30.1 in North 1.8 mph 3.5 mph 97% 0 in 0 W/m2
03:49 46 °F 45.1 °F 30.1 in North 1.5 mph 3.5 mph 97% 0 in 0 W/m2
03:54 46 °F 45.1 °F 30.1 in North 1.1 mph 3 mph 97% 0 in 0 W/m2
03:59 46 °F 45.3 °F 30.1 in North 1 mph 2.3 mph 97% 0 in 0 W/m2
04:04 46 °F 45.1 °F 30.1 in North 0.8 mph 2.3 mph 97% 0 in 0 W/m2
04:09 46 °F 45.1 °F 30.1 in North 0.2 mph 2 mph 97% 0 in 0 W/m2
04:14 46 °F 45.1 °F 30.1 in North 0.1 mph 1.2 mph 97% 0 in 0 W/m2
04:19 46 °F 45.1 °F 30.1 in NNE 0.4 mph 2.3 mph 97% 0 in 0 W/m2
04:24 46 °F 45.1 °F 30.1 in NE 1.4 mph 2.3 mph 97% 0 in 0 W/m2
04:29 46 °F 45.1 °F 30.1 in NE 1.5 mph 3.5 mph 97% 0 in 0 W/m2
04:34 45.9 °F 45.1 °F 30.1 in NE 0.6 mph 2.3 mph 97% 0 in 0 W/m2
04:39 46 °F 45.1 °F 30.1 in NNE 0.6 mph 2.3 mph 97% 0 in 0 W/m2
04:44 46 °F 45.1 °F 30.1 in NNE 0.6 mph 2.3 mph 97% 0 in 0 W/m2
04:49 46 °F 45.1 °F 30.1 in NNE 1.1 mph 2.3 mph 97% 0 in 0 W/m2
04:54 46 °F 45.1 °F 30.1 in ENE 1.8 mph 3.5 mph 97% 0 in 0 W/m2
04:59 46 °F 45.1 °F 30.1 in ESE 2 mph 3.5 mph 97% 0 in 0 W/m2
05:04 45.9 °F 45.1 °F 30.1 in ESE 2.4 mph 3.5 mph 97% 0 in 0 W/m2
05:09 45.9 °F 45.1 °F 30.1 in East 1.4 mph 3 mph 97% 0 in 0 W/m2
05:14 45.9 °F 45.1 °F 30.1 in ESE 1 mph 2.3 mph 97% 0 in 0 W/m2
05:19 45.9 °F 45.1 °F 30.1 in ESE 1.1 mph 2.3 mph 97% 0 in 0 W/m2
05:24 45.9 °F 45.1 °F 30.1 in ESE 0.9 mph 2.3 mph 97% 0 in 0 W/m2
05:29 45.9 °F 45 °F 30.1 in ESE 1.1 mph 2.3 mph 97% 0 in 0 W/m2
05:34 45.9 °F 45 °F 30.1 in ESE 0.7 mph 2.3 mph 97% 0 in 0 W/m2
05:39 45.9 °F 45 °F 30.1 in ESE 0.4 mph 2 mph 97% 0 in 0 W/m2
05:44 45.9 °F 45 °F 30.1 in ESE 0.7 mph 2.3 mph 97% 0 in 0 W/m2
05:49 45.9 °F 45 °F 30.1 in East 0.9 mph 2.3 mph 97% 0 in 0 W/m2
05:54 45.9 °F 45 °F 30.1 in ENE 0.5 mph 2.3 mph 97% 0 in 0 W/m2
05:59 45.9 °F 45.1 °F 30.1 in ENE 0.5 mph 2 mph 97% 0 in 0 W/m2
06:04 45.9 °F 45.1 °F 30.1 in ENE 0.4 mph 1.2 mph 97% 0 in 0 W/m2
06:09 45.9 °F 45.1 °F 30.1 in ENE 0.3 mph 2.3 mph 97% 0 in 0 W/m2
06:14 45.9 °F 45.1 °F 30.1 in ENE 0.6 mph 2.3 mph 97% 0 in 0 W/m2
06:19 45.9 °F 45.1 °F 30.1 in ENE 0.8 mph 2.3 mph 97% 0 in 0 W/m2
06:24 45.9 °F 45.1 °F 30.1 in ENE 1 mph 2.3 mph 97% 0 in 0 W/m2
06:29 46 °F 45.1 °F 30.1 in NE 1.8 mph 4 mph 97% 0 in 0 W/m2
06:34 46 °F 45.1 °F 30.1 in NNE 2.4 mph 4 mph 97% 0 in 0 W/m2
06:39 46 °F 45.1 °F 30.1 in NNE 2.1 mph 4 mph 97% 0 in 0 W/m2
06:44 46 °F 45.3 °F 30.1 in NNE 2.1 mph 4 mph 97% 0 in 0 W/m2
06:49 46 °F 45.3 °F 30.1 in NE 2.7 mph 4 mph 97% 0 in 0 W/m2
06:54 46 °F 45.3 °F 30.1 in NE 2.3 mph 4 mph 97% 0 in 0 W/m2
06:59 46 °F 45.1 °F 30.1 in ENE 2.3 mph 4 mph 97% 0 in 0 W/m2
07:04 46 °F 45.3 °F 30.1 in ENE 2.4 mph 4 mph 97% 0 in 0 W/m2
07:09 46 °F 45.1 °F 30.1 in ENE 0.5 mph 4 mph 97% 0 in 0 W/m2
07:14 46 °F 45.1 °F 30.1 in ENE 0.9 mph 2.3 mph 97% 0 in 0 W/m2
07:19 46 °F 45.1 °F 30.1 in ENE 1.6 mph 3.5 mph 97% 0 in 0 W/m2
07:24 46 °F 45.1 °F 30.1 in NE 1.8 mph 3.5 mph 97% 0 in 0 W/m2
07:29 46 °F 45.3 °F 30.1 in NE 2.1 mph 3.5 mph 97% 0 in 0 W/m2
07:34 46 °F 45.3 °F 30.1 in ENE 1.2 mph 3.5 mph 97% 0 in 0 W/m2
07:39 46 °F 45.3 °F 30.2 in ENE 0.4 mph 3 mph 97% 0 in 0 W/m2
07:44 46 °F 45.3 °F 30.2 in ENE 0.1 mph 1.2 mph 97% 0 in 0 W/m2
07:49 46 °F 45.3 °F 30.2 in ENE 0.9 mph 2.3 mph 97% 0 in 0 W/m2
07:54 46 °F 45.3 °F 30.2 in ENE 1.8 mph 3 mph 97% 0.01 in 0 W/m2
07:59 46 °F 45.3 °F 30.2 in NNE 2.1 mph 3.5 mph 97% 0.01 in 0 W/m2
08:04 46 °F 45.3 °F 30.2 in NNE 2.1 mph 3.5 mph 97% 0.02 in 0 W/m2
08:09 46 °F 45.3 °F 30.2 in NNE 1.4 mph 3.5 mph 97% 0.02 in 0 W/m2
08:14 46 °F 45.3 °F 30.2 in NNE 0.2 mph 2.3 mph 97% 0.02 in 0 W/m2
08:19 46 °F 45.3 °F 30.2 in NNE 0.1 mph 1.2 mph 97% 0.02 in 0 W/m2
08:24 46 °F 45.3 °F 30.2 in NE 1.7 mph 5 mph 97% 0.02 in 0 W/m2
08:29 46 °F 45.3 °F 30.2 in ENE 3.2 mph 5 mph 97% 0.03 in 5 W/m2
08:34 46 °F 45.3 °F 30.2 in ESE 1.1 mph 5 mph 97% 0.03 in 5 W/m2
08:39 46 °F 45.3 °F 30.2 in East 1.1 mph 3.5 mph 97% 0.04 in 14 W/m2
08:44 46 °F 45.3 °F 30.2 in ESE 2.1 mph 3.5 mph 97% 0.06 in 11 W/m2
08:49 46 °F 45.3 °F 30.2 in SE 0.5 mph 3.5 mph 97% 0.06 in 0 W/m2
08:54 46.2 °F 45.3 °F 30.2 in SE 0.4 mph 2.3 mph 97% 0.06 in 0 W/m2
08:59 46.2 °F 45.3 °F 30.2 in ESE 1.6 mph 3.5 mph 97% 0.06 in 7 W/m2
09:04 46.2 °F 45.3 °F 30.2 in ESE 1.9 mph 3.5 mph 97% 0.06 in 11 W/m2
09:09 46.2 °F 45.3 °F 30.2 in East 1.1 mph 3.5 mph 97% 0.06 in 11 W/m2
09:14 46.2 °F 45.3 °F 30.2 in East 0.3 mph 2.3 mph 97% 0.06 in 5 W/m2
09:19 46.2 °F 45.3 °F 30.2 in SSW 1.3 mph 3.5 mph 97% 0.06 in 11 W/m2
09:24 46.2 °F 45.3 °F 30.2 in West 0.4 mph 3 mph 97% 0.05 in 11 W/m2
09:29 46.2 °F 45.5 °F 30.2 in WSW 0.7 mph 2.3 mph 97% 0.05 in 7 W/m2
09:34 46.2 °F 45.5 °F 30.2 in WSW 0.1 mph 2 mph 97% 0.05 in 11 W/m2
09:39 46.2 °F 45.5 °F 30.2 in WSW 0.9 mph 2.3 mph 97% 0.04 in 7 W/m2
09:44 46.2 °F 45.5 °F 30.2 in Calm   2 mph 97% 0.04 in 7 W/m2
09:49 46.2 °F 45.5 °F 30.2 in WSW 0.1 mph 1.2 mph 97% 0.03 in 11 W/m2
09:54 46.2 °F 45.5 °F 30.2 in Calm   1 mph 97% 0.02 in 12 W/m2
09:59 46.2 °F 45.5 °F 30.2 in NW 0.4 mph 2 mph 97% 0.02 in 18 W/m2
10:04 46.4 °F 45.5 °F 30.2 in NW 1.1 mph 2.3 mph 97% 0.01 in 26 W/m2
10:09 46.4 °F 45.7 °F 30.2 in NNW 1.6 mph 3.5 mph 97% 0.02 in 42 W/m2
10:14 46.6 °F 45.7 °F 30.2 in North 1.6 mph 3.5 mph 97% 0.01 in 44 W/m2
10:19 46.6 °F 45.9 °F 30.2 in NNE 1.9 mph 4 mph 97% 0.01 in 44 W/m2
10:24 46.6 °F 45.9 °F 30.2 in NNE 1.5 mph 4 mph 97% 0.01 in 32 W/m2
10:29 46.8 °F 45.9 °F 30.2 in NNE 0.8 mph 3 mph 97% 0.01 in 21 W/m2
10:34 46.8 °F 45.9 °F 30.2 in North 0.4 mph 2.3 mph 97% 0.02 in 18 W/m2
10:39 46.8 °F 46 °F 30.2 in North 0.5 mph 2.3 mph 97% 0.02 in 26 W/m2
10:44 46.8 °F 46 °F 30.2 in North 0.1 mph 1.2 mph 97% 0.02 in 46 W/m2
10:49 46.8 °F 46 °F 30.2 in Calm   1 mph 97% 0.02 in 62 W/m2
10:54 46.8 °F 46 °F 30.2 in North 0.2 mph 1.2 mph 97% 0.02 in 62 W/m2
10:59 46.9 °F 46 °F 30.2 in Calm   1.2 mph 97% 0.02 in 62 W/m2
11:04 46.9 °F 46.2 °F 30.2 in Calm     97% 0.03 in 60 W/m2
11:09 46.9 °F 46.2 °F 30.2 in Calm     97% 0.03 in 46 W/m2
11:14 46.9 °F 46.2 °F 30.2 in Calm     97% 0.03 in 40 W/m2
11:19 46.9 °F 46.2 °F 30.2 in Calm     97% 0.03 in 25 W/m2
11:24 46.9 °F 46.2 °F 30.2 in Calm     97% 0.03 in 21 W/m2
11:29 46.9 °F 46.2 °F 30.2 in Calm     97% 0.02 in 23 W/m2
11:34 46.9 °F 46.2 °F 30.2 in Calm     97% 0.02 in 42 W/m2
11:39 46.9 °F 46.2 °F 30.2 in Calm     97% 0.03 in 56 W/m2
11:44 46.9 °F 46.2 °F 30.2 in Calm     97% 0.03 in 74 W/m2
11:49 46.9 °F 46.2 °F 30.2 in Calm     97% 0.03 in 74 W/m2
11:54 47.3 °F 46.4 °F 30.2 in Calm     97% 0.02 in 65 W/m2
11:59 47.5 °F 46.6 °F 30.2 in Calm     97% 0.02 in 83 W/m2
12:04 47.7 °F 46.8 °F 30.2 in Calm     97% 0.02 in 83 W/m2
12:09 47.7 °F 46.8 °F 30.2 in WNW 0.3 mph 2.3 mph 97% 0.02 in 67 W/m2
12:14 47.7 °F 46.8 °F 30.2 in NW 1.1 mph 2.3 mph 97% 0.02 in 58 W/m2
12:19 47.7 °F 46.8 °F 30.2 in NNW 0.9 mph 2.3 mph 97% 0.02 in 58 W/m2
12:24 47.5 °F 46.8 °F 30.2 in NNW 0.1 mph 2 mph 97% 0.01 in 53 W/m2
12:29 47.5 °F 46.8 °F 30.2 in Calm   1.2 mph 97% 0.01 in 74 W/m2
12:34 47.5 °F 46.8 °F 30.2 in West 0.6 mph 2.3 mph 97% 0.01 in 67 W/m2
12:39 47.5 °F 46.8 °F 30.2 in West 0.7 mph 2.3 mph 97% 0.01 in 69 W/m2
12:44 47.7 °F 46.9 °F 30.2 in NW 1.1 mph 2.3 mph 97% 0.01 in 163 W/m2
12:49 48.2 °F 47.5 °F 30.2 in NNW 1.2 mph 2.3 mph 97% 0.01 in 174 W/m2
12:54 48 °F 47.3 °F 30.2 in NNW 0.2 mph 1.2 mph 97% 0.01 in 118 W/m2
12:59 48 °F 47.1 °F 30.2 in NNW 0.3 mph 1.2 mph 97% 0 in 98 W/m2
13:04 47.8 °F 47.1 °F 30.2 in NNW 0.5 mph 2.3 mph 97% 0 in 69 W/m2
13:09 48 °F 47.1 °F 30.2 in WNW 0.6 mph 3 mph 97% 0 in 90 W/m2
13:14 48 °F 47.1 °F 30.2 in West 2 mph 3.5 mph 97% 0 in 84 W/m2
13:19 48 °F 47.3 °F 30.2 in WNW 0.4 mph 3 mph 97% 0 in 65 W/m2
13:24 48.2 °F 47.3 °F 30.2 in WNW 0.2 mph 1.2 mph 97% 0 in 91 W/m2
13:29 48.2 °F 47.3 °F 30.2 in WNW 0.2 mph 1.2 mph 96.6% 0 in 116 W/m2
13:34 48.4 °F 47.3 °F 30.2 in WNW 0.1 mph 1.2 mph 96% 0 in 109 W/m2
13:39 48.6 °F 47.3 °F 30.2 in WNW 0.5 mph 2.3 mph 96% 0 in 105 W/m2
13:44 48.6 °F 47.5 °F 30.2 in NW 0.4 mph 2.3 mph 96% 0 in 84 W/m2
13:49 48.6 °F 47.5 °F 30.2 in North 0.3 mph 2 mph 96% 0 in 79 W/m2
13:54 48.6 °F 47.5 °F 30.2 in NNE 1.4 mph 3.5 mph 96% 0 in 84 W/m2
13:59 48.7 °F 47.7 °F 30.2 in North 0.4 mph 3 mph 96% 0 in 74 W/m2
14:04 48.9 °F 47.8 °F 30.2 in North 1.3 mph 3.5 mph 96% 0 in 63 W/m2
14:09 49.1 °F 47.8 °F 30.2 in NNE 1.1 mph 3.5 mph 96% 0 in 39 W/m2
14:14 48.9 °F 47.8 °F 30.2 in NNE 0.8 mph 2.3 mph 96% 0 in 37 W/m2
14:19 48.9 °F 47.8 °F 30.2 in NNE 1.8 mph 3.5 mph 96% 0 in 37 W/m2
14:24 48.9 °F 47.8 °F 30.2 in North 1.5 mph 3.5 mph 96% 0 in 51 W/m2
14:29 48.9 °F 47.8 °F 30.2 in NNW 1.6 mph 3.5 mph 96% 0 in 62 W/m2
14:34 48.9 °F 47.8 °F 30.2 in NNW 1.6 mph 3.5 mph 96% 0 in 63 W/m2
14:39 49.1 °F 48 °F 30.2 in North 2.4 mph 4 mph 96% 0 in 65 W/m2
14:44 49.1 °F 47.8 °F 30.2 in North 1.7 mph 4 mph 96% 0 in 56 W/m2
14:49 48.9 °F 47.8 °F 30.2 in NNW 1.2 mph 3.5 mph 96% 0 in 42 W/m2
14:54 48.9 °F 47.8 °F 30.2 in NW 1.3 mph 3.5 mph 96% 0 in 21 W/m2
14:59 48.9 °F 47.8 °F 30.2 in NW 1 mph 3.5 mph 96% 0 in 19 W/m2
15:04 48.9 °F 47.8 °F 30.2 in WNW 0.2 mph 2 mph 96% 0 in 23 W/m2
15:09 48.9 °F 47.8 °F 30.2 in WNW 0.1 mph 1.2 mph 96% 0 in 23 W/m2
15:14 48.9 °F 47.8 °F 30.2 in WNW 0.1 mph 1.2 mph 96% 0 in 25 W/m2
15:19 48.9 °F 47.8 °F 30.2 in WNW 0.1 mph 1.2 mph 96% 0 in 35 W/m2
15:24 48.9 °F 47.8 °F 30.2 in Calm   1 mph 96% 0 in 35 W/m2
15:29 48.9 °F 47.8 °F 30.2 in WNW 0.2 mph 1.2 mph 96% 0 in 32 W/m2
15:34 48.9 °F 47.8 °F 30.2 in WNW 0.6 mph 2.3 mph 95.9% 0 in 28 W/m2
15:39 48.9 °F 47.8 °F 30.2 in WNW 0.1 mph 2 mph 96% 0 in 28 W/m2
15:44 48.9 °F 47.8 °F 30.2 in WNW 0.8 mph 3 mph 96% 0 in 26 W/m2
15:49 48.9 °F 47.8 °F 30.2 in SW 0.7 mph 3.5 mph 96% 0 in 21 W/m2
15:54 48.9 °F 47.8 °F 30.2 in SW 0.1 mph 2 mph 96% 0 in 21 W/m2
15:59 48.9 °F 47.8 °F 30.2 in SW 0.6 mph 2 mph 96% 0 in 21 W/m2
16:04 48.9 °F 47.8 °F 30.2 in SW 0.6 mph 2.3 mph 96% 0 in 18 W/m2
16:09 48.9 °F 47.5 °F 30.2 in WSW 0.7 mph 2.3 mph 95.4% 0 in 14 W/m2
16:14 48.7 °F 47.5 °F 30.2 in WSW 0.7 mph 2.3 mph 95% 0 in 7 W/m2
16:19 48.7 °F 47.5 °F 30.2 in WSW 0.1 mph 2 mph 95% 0 in 7 W/m2
16:24 48.7 °F 47.3 °F 30.2 in WSW 1.4 mph 3 mph 95% 0 in 0 W/m2
16:29 48.7 °F 47.3 °F 30.2 in West 1.7 mph 3.5 mph 95% 0 in 0 W/m2
16:34 48.7 °F 47.3 °F 30.2 in West 0.3 mph 3 mph 95% 0 in 0 W/m2
16:39 48.7 °F 47.3 °F 30.2 in West 1.2 mph 3 mph 95% 0 in 0 W/m2
16:44 48.6 °F 47.3 °F 30.2 in West 1.3 mph 3.5 mph 95% 0 in 0 W/m2
16:49 48.6 °F 47.1 °F 30.2 in West 0.7 mph 2.3 mph 95% 0 in 0 W/m2
16:54 48.6 °F 47.1 °F 30.2 in NW 0.8 mph 3.5 mph 95% 0 in 0 W/m2
16:59 48.6 °F 47.1 °F 30.2 in WNW 1.6 mph 3.5 mph 95% 0 in 0 W/m2
17:04 48.6 °F 47.1 °F 30.2 in WSW 0.6 mph 3.5 mph 95% 0 in 0 W/m2
17:09 48.6 °F 47.1 °F 30.2 in West 0.4 mph 3 mph 95% 0 in 0 W/m2
17:14 48.6 °F 47.1 °F 30.2 in WNW 0.9 mph 2.3 mph 95% 0 in 0 W/m2
17:19 48.6 °F 47.1 °F 30.2 in WNW 0.7 mph 2.3 mph 95% 0 in 0 W/m2
17:24 48.6 °F 47.1 °F 30.2 in WNW 1.1 mph 2.3 mph 95% 0 in 0 W/m2
17:29 48.4 °F 47.1 °F 30.2 in West 0.9 mph 2.3 mph 95% 0 in 0 W/m2
17:34 48.4 °F 46.9 °F 30.2 in West 0.7 mph 2.3 mph 95% 0 in 0 W/m2
17:39 48.4 °F 46.9 °F 30.2 in West 1.4 mph 3 mph 95% 0 in 0 W/m2
17:44 48.4 °F 46.9 °F 30.2 in SW 1.5 mph 3.5 mph 95% 0 in 0 W/m2
17:49 48.4 °F 46.9 °F 30.2 in WSW 1.4 mph 3 mph 95% 0 in 0 W/m2
17:54 48.4 °F 46.9 °F 30.2 in WSW 1.5 mph 2.3 mph 95% 0 in 0 W/m2
17:59 48.4 °F 46.9 °F 30.2 in West 1.9 mph 3.5 mph 95% 0 in 0 W/m2
18:04 48.4 °F 46.9 °F 30.2 in West 1.7 mph 3.5 mph 95% 0 in 0 W/m2
18:09 48.4 °F 46.9 °F 30.2 in West 2.5 mph 4 mph 95% 0 in 0 W/m2
18:14 48.4 °F 46.9 °F 30.2 in West 2.1 mph 4 mph 95.2% 0 in 0 W/m2
18:19 48.4 °F 47.1 °F 30.2 in West 1.8 mph 3.5 mph 95.5% 0 in 0 W/m2
18:24 48.4 °F 47.1 °F 30.2 in West 1.7 mph 3.5 mph 96% 0 in 0 W/m2
18:29 48.4 °F 47.1 °F 30.2 in West 1.7 mph 3.5 mph 96% 0 in 0 W/m2
18:34 48.2 °F 47.1 °F 30.2 in West 1.9 mph 3.5 mph 96% 0 in 0 W/m2
18:39 48.2 °F 47.1 °F 30.2 in WNW 1.6 mph 3.5 mph 96% 0 in 0 W/m2
18:44 48.2 °F 47.1 °F 30.2 in WNW 1.7 mph 3.5 mph 95.8% 0 in 0 W/m2
18:49 48.2 °F 46.9 °F 30.2 in WNW 0.7 mph 3 mph 95.4% 0 in 0 W/m2
18:54 48.2 °F 46.9 °F 30.2 in WNW 1 mph 2.3 mph 95.5% 0 in 0 W/m2
18:59 48.2 °F 46.9 °F 30.2 in West 1.2 mph 2.3 mph 95.3% 0 in 0 W/m2
19:04 48.2 °F 46.8 °F 30.2 in West 1.1 mph 2.3 mph 95% 0 in 0 W/m2
19:09 48.2 °F 46.8 °F 30.2 in West 1.3 mph 2.3 mph 95% 0 in 0 W/m2
19:14 48.2 °F 46.8 °F 30.2 in West 0.6 mph 2.3 mph 95% 0 in 0 W/m2
19:19 48 °F 46.8 °F 30.2 in West 0.8 mph 2.3 mph 95% 0 in 0 W/m2
19:24 48 °F 46.8 °F 30.2 in West 1.4 mph 2.3 mph 95.3% 0 in 0 W/m2
19:29 48 °F 46.8 °F 30.2 in WNW 1.4 mph 3.5 mph 95.5% 0 in 0 W/m2
19:34 48 °F 46.9 °F 30.2 in WNW 1.5 mph 3.5 mph 95.8% 0 in 0 W/m2
19:39 48 °F 46.9 °F 30.2 in WNW 1.4 mph 3 mph 96% 0 in 0 W/m2
19:44 48 °F 46.9 °F 30.2 in WNW 1.2 mph 2.3 mph 96% 0 in 0 W/m2
19:49 48 °F 46.9 °F 30.2 in WNW 1.2 mph 3.5 mph 96% 0 in 0 W/m2
19:54 48 °F 46.9 °F 30.2 in WNW 1.8 mph 3.5 mph 96% 0 in 0 W/m2
19:59 48 °F 46.9 °F 30.2 in West 1.9 mph 3.5 mph 96% 0 in 0 W/m2
20:04 48 °F 46.8 °F 30.3 in West 2.2 mph 3.5 mph 96% 0 in 0 W/m2
20:09 47.8 °F 46.8 °F 30.3 in West 2.5 mph 4 mph 96% 0 in 0 W/m2
20:14 47.8 °F 46.8 °F 30.3 in West 2.7 mph 4 mph 96% 0 in 0 W/m2
20:19 47.8 °F 46.8 °F 30.3 in WSW 2.8 mph 5 mph 96% 0 in 0 W/m2
20:24 47.8 °F 46.8 °F 30.3 in WSW 3 mph 5 mph 96% 0 in 0 W/m2
20:29 47.8 °F 46.8 °F 30.2 in WSW 1.7 mph 5 mph 96% 0 in 0 W/m2
20:34 47.8 °F 46.6 °F 30.2 in WSW 1.2 mph 3 mph 96% 0 in 0 W/m2
20:39 47.7 °F 46.6 °F 30.2 in WSW 1.4 mph 2.3 mph 96% 0 in 0 W/m2
20:44 47.7 °F 46.6 °F 30.3 in West 1.6 mph 3 mph 96% 0 in 0 W/m2
20:49 47.7 °F 46.6 °F 30.3 in West 3.3 mph 5 mph 96% 0 in 0 W/m2
20:54 47.7 °F 46.6 °F 30.3 in West 3 mph 6 mph 96% 0 in 0 W/m2
20:59 47.7 °F 46.6 °F 30.3 in West 3.9 mph 6 mph 96% 0 in 0 W/m2
21:04 47.7 °F 46.6 °F 30.3 in West 3.3 mph 6 mph 96% 0 in 0 W/m2
21:09 47.7 °F 46.6 °F 30.3 in West 3 mph 5 mph 96% 0 in 0 W/m2
21:14 47.7 °F 46.6 °F 30.3 in WSW 2.4 mph 5 mph 96% 0 in 0 W/m2
21:19 47.7 °F 46.6 °F 30.3 in West 1.8 mph 4 mph 96% 0 in 0 W/m2
21:24 47.7 °F 46.6 °F 30.3 in West 2.3 mph 4 mph 96% 0 in 0 W/m2
21:29 47.7 °F 46.6 °F 30.3 in West 2.4 mph 4 mph 96% 0 in 0 W/m2
21:34 47.7 °F 46.4 °F 30.3 in West 2.4 mph 4 mph 96% 0 in 0 W/m2
21:39 47.5 °F 46.4 °F 30.3 in West 3 mph 5 mph 96% 0 in 0 W/m2
21:44 47.5 °F 46.4 °F 30.3 in WSW 2.2 mph 5 mph 96% 0 in 0 W/m2
21:49 47.5 °F 46.4 °F 30.3 in WSW 2.2 mph 4 mph 96% 0 in 0 W/m2
21:54 47.5 °F 46.4 °F 30.3 in West 3.8 mph 6 mph 96% 0 in 0 W/m2
21:59 47.5 °F 46.4 °F 30.3 in West 3.9 mph 6 mph 96% 0 in 0 W/m2
22:04 47.5 °F 46.4 °F 30.3 in West 4.5 mph 7 mph 96% 0 in 0 W/m2
22:09 47.5 °F 46.4 °F 30.3 in West 3.5 mph 7 mph 96% 0 in 0 W/m2
22:14 47.5 °F 46.4 °F 30.3 in West 3.5 mph 5 mph 96% 0 in 0 W/m2
22:19 47.5 °F 46.2 °F 30.3 in WSW 3.9 mph 6 mph 96% 0 in 0 W/m2
22:24 47.5 °F 46.2 °F 30.3 in WSW 3.7 mph 6 mph 96% 0 in 0 W/m2
22:29 47.5 °F 46.2 °F 30.3 in WSW 3.3 mph 6 mph 96% 0 in 0 W/m2
22:34 47.5 °F 46.2 °F 30.3 in WSW 3.4 mph 7 mph 96% 0 in 0 W/m2
22:39 47.5 °F 46.2 °F 30.3 in West 3.7 mph 7 mph 96% 0 in 0 W/m2
22:44 47.5 °F 46.2 °F 30.3 in West 2.5 mph 7 mph 96% 0 in 0 W/m2
22:49 47.5 °F 46.2 °F 30.3 in West 2.9 mph 5 mph 96% 0 in 0 W/m2
22:54 47.3 °F 46.2 °F 30.3 in WSW 3.8 mph 6 mph 96% 0 in 0 W/m2
22:59 47.3 °F 46.2 °F 30.3 in West 3.6 mph 5 mph 96% 0 in 0 W/m2
23:04 47.3 °F 46.2 °F 30.3 in WSW 3.6 mph 5 mph 96% 0 in 0 W/m2
23:09 47.3 °F 46.2 °F 30.3 in West 3.3 mph 5 mph 96% 0 in 0 W/m2
23:14 47.3 °F 46.2 °F 30.3 in WSW 3.7 mph 6 mph 96% 0 in 0 W/m2
23:19 47.3 °F 46.2 °F 30.3 in West 4.1 mph 6 mph 96% 0 in 0 W/m2
23:24 47.3 °F 46.2 °F 30.3 in West 4.2 mph 7 mph 96% 0 in 0 W/m2
23:29 47.3 °F 46.2 °F 30.3 in West 3.4 mph 7 mph 96% 0 in 0 W/m2
23:34 47.3 °F 46.2 °F 30.3 in West 4.2 mph 7 mph 96% 0 in 0 W/m2
23:39 47.3 °F 46.2 °F 30.3 in West 4 mph 7 mph 96% 0 in 0 W/m2
23:44 47.3 °F 46.2 °F 30.3 in West 3.9 mph 7 mph 96% 0 in 0 W/m2
23:49 47.3 °F 46.2 °F 30.3 in West 4.4 mph 7 mph 96% 0 in 0 W/m2
23:54 47.3 °F 46.2 °F 30.3 in West 4.8 mph 8.1 mph 96% 0 in 0 W/m2
23:59 47.3 °F 46.2 °F 30.3 in West 4.8 mph 8.1 mph 96% 0 in 0 W/m2
Stazione Meteorologica MeteoMincio Rivalta s/M (MN)
Con i complimenti di Weather Underground - 4 mb


METEO PILLOLE
Il tornado più violento degli Stati Uniti
Missouri - Illinois e Indiana
Il 18 marzo 1925 un tornado percorre oltre 350 chilometri attraverso tre Stati, uccidendo 689 persone e ferendone quasi 200.

Do NOT follow this link or you will be banned from the site!